Aérodrome :
LOGIN :

S'inscrire | Disclaimer

   EN    FR    IT 

 










Légende :    VFR   VFR Marginal   IFR   IFR Intensif   IFR Très Intensif
Visi : 
Plafond : 
>= 8 km
>= 3000ft
5 à 8 km
1000 à 3000 ft
1500m à 5 km
500 à 1000 ft
800 à 1500m
200 à 500 ft
< 800m
< 200 ft
Symboles :   Orages  Brouillard  Fortes neiges  Fortes précipitations  Vent > 20 kt
SIGMETs :   Divers  Orages  Givrage  Turbulence  Onde Orograph.  Cendres Volcan.







- Altitude de l'aérodrome : 16 ft
- Code IATA : SDR


LEXJ - Santander Cantabria

DERNIER METAR :
  • 181800Z 29014KT 260V320 3000 R29/1100N DZ BR BKN010 OVC016 13/12 Q1030

METARs EXPIRÉS :
  • 181730Z 29013G23KT 4000 DZ BR OVC010 13/12 Q1030
  • 181700Z 28012KT 4000 -DZ OVC014 12/12 Q1030
  • 181630Z 28014KT 250V320 7000 -DZ OVC015 13/11 Q1030
  • 181600Z 23007KT 200V270 9999 OVC016 11/10 Q1030
  • 181530Z 22009KT 190V250 9999 OVC015 10/09 Q1030

TAF TAF LEXJ
Valide du 18 à 15h jusqu'au 19 à 15h UTC


181400Z 1815/1915 29009KT 9999 SCT015 BKN025 TX13/1822Z TN05/1907Z
TEMPO 1815/1824 33015G30KT
TEMPO 1815/1824 3000 RA BKN010 BKN014
PROB30
TEMPO 1821/1906 1500 BR BCFG BKN002
Pas de NOTAMs connus pour ce terrain.



MET'MAP, la Météo Aéronautique d'un coup d'oeil ! - Copyright ORBIFLY Décembre 2007 - Disclaimer

ORBIFLY MET'MAP TEAM :

Programmation & Développement : Alexandra Zaïnal
Conception & Développement : Baudouin d'Aumeries
Co-Programmation & Développement : Marc-Olivier Méhu
Soutien technique & logistique : Manuel Goepfert

Contact : metmap@orbifly.com




SOURCES & CREDITS :

   NOAA